Time;durP1;ratioP1;P1;durP2;ratioP2;P2;SDS_P1;SDS_P2;PMS_P1;PMS_P2;Temp;Humidity;BMP_temperature;BMP_pressure;BME280_temperature;BME280_humidity;BME280_pressure;Samples;Min_cycle;Max_cycle;Signal;HPM_P1;HPM_P2
2021/09/09 00:01:50;;;;;;;9.50;5.50;;;;;;;14.14;71.63;97025.38;1683688;84;21374;-83
2021/09/09 00:04:17;;;;;;;6.97;5.20;;;;;;;14.10;71.90;97021.53;1699672;83;21005;-83
2021/09/09 00:06:42;;;;;;;6.53;5.17;;;;;;;14.06;72.05;97023.72;1675845;84;21394;-83
2021/09/09 00:09:08;;;;;;;6.00;4.90;;;;;;;14.03;71.81;97020.67;1703293;83;21018;-83
2021/09/09 00:11:34;;;;;;;7.65;6.08;;;;;;;14.02;71.92;97016.45;1695184;84;20996;-83
2021/09/09 00:14:00;;;;;;;6.25;5.28;;;;;;;14.00;71.95;97014.02;1716499;83;21150;-83
2021/09/09 00:16:26;;;;;;;6.65;5.53;;;;;;;13.99;71.34;97016.33;1708032;82;21098;-84
2021/09/09 00:18:52;;;;;;;8.33;5.53;;;;;;;13.99;71.60;97016.33;1676535;84;21150;-83
2021/09/09 00:21:17;;;;;;;7.72;5.90;;;;;;;13.99;71.06;97012.87;1683874;84;21034;-83
2021/09/09 00:23:43;;;;;;;6.90;5.87;;;;;;;14.00;71.53;97015.33;1678624;84;20993;-83
2021/09/09 00:26:09;;;;;;;6.72;5.50;;;;;;;14.00;71.67;97011.91;1699903;84;21086;-83
2021/09/09 00:28:35;;;;;;;6.08;5.10;;;;;;;13.95;71.76;97018.17;1690830;84;21403;-83
2021/09/09 00:31:00;;;;;;;6.25;5.20;;;;;;;13.92;71.50;97018.55;1699241;84;21351;-83
2021/09/09 00:33:26;;;;;;;5.53;5.03;;;;;;;13.89;71.37;97015.82;1670300;84;21004;-83
2021/09/09 00:35:52;;;;;;;8.13;5.72;;;;;;;13.87;71.59;97014.39;1699643;84;21427;-83
2021/09/09 00:38:18;;;;;;;5.95;5.35;;;;;;;13.85;71.65;97015.08;1680261;84;21023;-83
2021/09/09 00:40:44;;;;;;;7.25;5.05;;;;;;;13.80;72.07;97010.39;1695685;84;21106;-83
2021/09/09 00:43:10;;;;;;;6.97;5.50;;;;;;;13.76;71.87;97011.77;1678721;84;21002;-82
2021/09/09 00:45:36;;;;;;;5.90;4.78;;;;;;;13.72;71.85;97013.14;1673006;84;20970;-82
2021/09/09 00:48:02;;;;;;;5.22;4.72;;;;;;;13.70;71.72;97008.11;1656546;84;21405;-82
2021/09/09 00:50:28;;;;;;;5.85;5.17;;;;;;;13.69;71.76;97008.30;1679220;84;21111;-82
2021/09/09 00:52:54;;;;;;;6.10;5.58;;;;;;;13.66;71.70;97009.45;1682578;84;21015;-82
2021/09/09 00:55:19;;;;;;;5.83;4.97;;;;;;;13.63;71.74;97007.22;1664368;84;21375;-82
2021/09/09 00:57:46;;;;;;;6.15;5.20;;;;;;;13.59;71.71;97004.67;1676466;84;20979;-82
2021/09/09 01:00:12;;;;;;;6.47;5.42;;;;;;;13.56;71.62;97003.74;1689791;84;20999;-82
2021/09/09 01:02:38;;;;;;;6.62;5.67;;;;;;;13.53;71.37;97007.23;1696994;84;21468;-82
2021/09/09 01:05:05;;;;;;;7.33;5.47;;;;;;;13.50;71.46;97009.68;1681455;84;21403;-82
2021/09/09 01:07:31;;;;;;;6.65;5.30;;;;;;;13.47;71.77;97005.64;1665413;84;21074;-82
2021/09/09 01:09:58;;;;;;;7.00;4.85;;;;;;;13.49;71.88;97002.34;1676170;84;21146;-82
2021/09/09 01:12:25;;;;;;;7.17;6.10;;;;;;;13.53;71.69;97002.81;1680963;84;21166;-83
2021/09/09 01:14:52;;;;;;;7.30;4.97;;;;;;;13.61;70.86;97000.56;1682972;84;21087;-82
2021/09/09 01:17:17;;;;;;;8.30;5.50;;;;;;;13.71;71.30;97008.92;1672459;84;21045;-82
2021/09/09 01:19:43;;;;;;;9.45;4.92;;;;;;;13.75;71.06;97003.13;1678941;84;21451;-82
2021/09/09 01:22:09;;;;;;;12.10;5.97;;;;;;;13.83;70.81;97006.13;1678188;84;20997;-82
2021/09/09 01:24:34;;;;;;;7.30;6.05;;;;;;;13.89;71.13;97005.87;1669088;84;21064;-82
2021/09/09 01:27:03;;;;;;;7.15;5.83;;;;;;;13.87;70.80;97009.17;1690221;84;21085;-82
2021/09/09 01:29:33;;;;;;;6.53;5.47;;;;;;;13.89;71.17;97003.26;1695071;84;21078;-82
2021/09/09 01:32:00;;;;;;;7.20;5.30;;;;;;;13.94;70.74;97005.61;1696619;84;21053;-82
2021/09/09 01:34:25;;;;;;;7.55;5.45;;;;;;;13.97;71.02;96999.20;1679203;84;21001;-82
2021/09/09 01:36:52;;;;;;;6.67;5.53;;;;;;;13.99;70.56;97003.73;1679170;84;21376;-82
2021/09/09 01:39:17;;;;;;;10.15;5.92;;;;;;;14.01;70.82;97001.77;1688892;84;21018;-82
2021/09/09 01:41:44;;;;;;;7.62;5.45;;;;;;;13.97;70.92;97002.62;1692340;84;21034;-82
2021/09/09 01:44:09;;;;;;;7.03;5.37;;;;;;;13.91;71.03;96998.65;1664455;84;21052;-82
2021/09/09 01:46:35;;;;;;;7.30;6.28;;;;;;;13.87;71.13;96997.41;1656171;84;21090;-82
2021/09/09 01:49:01;;;;;;;8.85;6.40;;;;;;;13.82;71.06;96994.84;1681778;84;21070;-82
2021/09/09 01:51:27;;;;;;;6.30;5.40;;;;;;;13.79;71.46;96999.14;1691341;84;21037;-82
2021/09/09 01:53:56;;;;;;;6.50;5.10;;;;;;;13.78;71.50;96998.83;1672595;84;21141;-82
2021/09/09 01:56:21;;;;;;;9.30;5.40;;;;;;;13.86;70.24;96998.41;1674721;84;21461;-82
2021/09/09 01:58:47;;;;;;;7.10;5.40;;;;;;;13.99;69.94;96995.42;1687857;84;21073;-83
2021/09/09 02:01:13;;;;;;;8.18;5.75;;;;;;;14.05;70.40;96984.71;1681681;84;21099;-82
2021/09/09 02:03:39;;;;;;;8.03;5.55;;;;;;;14.06;70.88;96987.63;1689271;84;21088;-83
2021/09/09 02:06:04;;;;;;;6.80;5.87;;;;;;;14.04;70.11;96998.77;1680074;84;21091;-82
2021/09/09 02:08:30;;;;;;;6.62;5.90;;;;;;;14.03;70.37;97000.58;1696818;84;21423;-82
2021/09/09 02:10:56;;;;;;;7.90;5.95;;;;;;;13.99;70.33;96994.12;1691275;84;21046;-82
2021/09/09 02:13:22;;;;;;;9.58;5.85;;;;;;;13.99;69.81;96994.59;1680926;84;21075;-82
2021/09/09 02:15:47;;;;;;;5.97;5.10;;;;;;;14.03;69.99;96997.16;1680877;84;21084;-82
2021/09/09 02:18:13;;;;;;;8.10;5.53;;;;;;;14.03;70.04;96994.55;1670940;84;21058;-82
2021/09/09 02:20:39;;;;;;;7.47;5.78;;;;;;;14.00;69.54;96993.13;1674150;84;21491;-83
2021/09/09 02:23:05;;;;;;;6.37;4.97;;;;;;;14.00;69.62;96985.78;1688355;84;21128;-82
2021/09/09 02:25:30;;;;;;;6.25;5.25;;;;;;;13.97;69.58;96992.66;1676099;84;21079;-82
2021/09/09 02:27:56;;;;;;;7.15;5.62;;;;;;;13.91;69.63;96979.06;1680971;84;21118;-82
2021/09/09 02:30:22;;;;;;;9.85;5.62;;;;;;;13.93;69.41;96980.48;1681840;84;21444;-83
2021/09/09 02:32:48;;;;;;;6.50;5.87;;;;;;;13.95;69.16;96975.87;1665075;84;21171;-82
2021/09/09 02:35:13;;;;;;;8.15;5.85;;;;;;;13.94;69.37;96970.34;1662431;84;21103;-82
2021/09/09 02:37:40;;;;;;;6.15;5.12;;;;;;;13.99;69.32;96970.61;1650304;85;21054;-82
2021/09/09 02:40:08;;;;;;;6.75;5.20;;;;;;;14.04;69.35;96973.45;1673172;85;21110;-82
2021/09/09 02:42:35;;;;;;;6.20;4.40;;;;;;;14.11;67.71;96976.11;1692866;84;21066;-82
2021/09/09 02:45:02;;;;;;;7.58;5.55;;;;;;;14.24;67.86;96972.79;1708180;83;21014;-83
2021/09/09 02:47:27;;;;;;;8.08;4.78;;;;;;;14.29;68.11;96965.98;1698529;83;21507;-82
2021/09/09 02:49:53;;;;;;;6.08;5.25;;;;;;;14.33;67.17;96960.70;1665459;84;21455;-82
2021/09/09 02:52:19;;;;;;;7.40;5.25;;;;;;;14.49;66.05;96966.67;1684331;84;21007;-83
2021/09/09 02:54:44;;;;;;;8.05;4.67;;;;;;;14.67;65.28;96953.90;1635818;85;20973;-82
2021/09/09 02:57:10;;;;;;;6.80;5.10;;;;;;;14.83;64.56;96954.08;1687822;83;20994;-83
2021/09/09 02:59:36;;;;;;;5.22;4.37;;;;;;;14.99;64.24;96952.44;1674178;84;21080;-82
2021/09/09 03:02:03;;;;;;;7.42;5.42;;;;;;;15.11;63.59;96963.14;1689650;84;21112;-82
2021/09/09 03:04:30;;;;;;;7.53;5.50;;;;;;;15.17;62.91;96957.94;1696665;84;21008;-82
2021/09/09 03:06:56;;;;;;;6.72;5.03;;;;;;;15.26;62.75;96958.56;1723469;83;21032;-82
2021/09/09 03:09:22;;;;;;;5.60;4.22;;;;;;;15.33;62.44;96950.23;1672140;83;21111;-83
2021/09/09 03:11:48;;;;;;;6.78;4.80;;;;;;;15.43;61.91;96955.88;1680337;84;21413;-82
2021/09/09 03:14:14;;;;;;;6.08;5.20;;;;;;;15.48;61.70;96950.88;1707162;83;21160;-83
2021/09/09 03:16:39;;;;;;;5.95;4.30;;;;;;;15.51;60.84;96957.53;1683060;84;21045;-82
2021/09/09 03:19:05;;;;;;;6.85;4.42;;;;;;;15.55;60.61;96960.05;1709299;83;21062;-83
2021/09/09 03:21:31;;;;;;;7.65;4.20;;;;;;;15.62;60.20;96959.61;1684168;85;21405;-83
2021/09/09 03:23:57;;;;;;;6.12;4.60;;;;;;;15.69;59.64;96967.46;1674503;85;21011;-82
2021/09/09 03:26:22;;;;;;;5.72;4.47;;;;;;;15.68;59.39;96951.44;1687938;84;21002;-82
2021/09/09 03:28:49;;;;;;;4.65;4.12;;;;;;;15.74;59.62;96961.92;1684392;84;21116;-83
2021/09/09 03:31:14;;;;;;;8.30;5.03;;;;;;;15.76;59.32;96955.97;1665224;84;21021;-83
2021/09/09 03:33:41;;;;;;;8.18;4.42;;;;;;;15.78;59.26;96960.53;1661843;84;21067;-82
2021/09/09 03:36:07;;;;;;;5.22;4.65;;;;;;;15.77;59.12;96964.13;1677842;84;21403;-82
2021/09/09 03:38:32;;;;;;;4.70;4.22;;;;;;;15.77;58.97;96963.33;1695846;83;21025;-83
2021/09/09 03:40:59;;;;;;;7.45;4.83;;;;;;;15.77;58.53;96954.96;1703362;84;21307;-83
2021/09/09 03:43:24;;;;;;;7.55;5.03;;;;;;;15.81;58.42;96960.63;1685292;84;21086;-82
2021/09/09 03:45:50;;;;;;;8.13;4.90;;;;;;;15.83;58.52;96954.18;1662095;84;21439;-83
2021/09/09 03:48:16;;;;;;;6.03;4.60;;;;;;;15.87;57.10;96959.82;1690147;84;21434;-83
2021/09/09 03:50:42;;;;;;;7.75;4.87;;;;;;;15.94;57.58;96960.62;1689695;84;21028;-82
2021/09/09 03:53:07;;;;;;;6.05;4.35;;;;;;;15.97;57.09;96960.23;1681375;84;21051;-83
2021/09/09 03:55:33;;;;;;;4.80;4.22;;;;;;;16.01;57.11;96968.00;1685462;84;21024;-82
2021/09/09 03:57:59;;;;;;;7.30;4.55;;;;;;;16.05;56.56;96962.65;1684838;83;21071;-83
2021/09/09 04:00:25;;;;;;;9.23;4.90;;;;;;;16.09;56.46;96963.05;1691483;84;21407;-82
2021/09/09 04:02:51;;;;;;;6.00;5.25;;;;;;;16.11;56.82;96965.80;1680547;84;21022;-82
2021/09/09 04:05:16;;;;;;;5.80;4.45;;;;;;;16.13;56.20;96966.39;1694447;85;21004;-83
2021/09/09 04:07:42;;;;;;;5.67;4.20;;;;;;;16.16;56.14;96965.98;1681813;84;21005;-83
2021/09/09 04:10:09;;;;;;;6.70;4.45;;;;;;;16.17;55.96;96961.04;1673986;84;21523;-83
2021/09/09 04:12:35;;;;;;;10.25;4.97;;;;;;;16.21;55.28;96962.23;1670165;84;21116;-82
2021/09/09 04:15:02;;;;;;;6.10;4.95;;;;;;;16.21;55.14;96955.69;1657105;84;21421;-82
2021/09/09 04:17:30;;;;;;;5.97;4.62;;;;;;;16.24;55.79;96956.28;1690995;83;20994;-83
2021/09/09 04:19:56;;;;;;;5.97;4.62;;;;;;;16.20;55.70;96958.01;1680817;84;21078;-83
2021/09/09 04:22:22;;;;;;;6.03;5.22;;;;;;;16.20;54.97;96953.27;1679214;83;21313;-82
2021/09/09 04:24:48;;;;;;;7.03;4.17;;;;;;;16.22;55.68;96953.87;1703880;83;21371;-82
2021/09/09 04:27:13;;;;;;;6.60;4.75;;;;;;;16.19;55.58;96949.84;1662004;85;21047;-83
2021/09/09 04:29:39;;;;;;;5.53;4.37;;;;;;;16.19;54.86;96952.46;1704415;83;21546;-83
2021/09/09 04:32:06;;;;;;;6.12;4.78;;;;;;;16.26;55.64;96963.44;1696058;84;21075;-82
2021/09/09 04:34:32;;;;;;;5.90;4.28;;;;;;;16.28;54.47;96962.76;1675187;84;21130;-83
2021/09/09 04:36:57;;;;;;;6.90;4.42;;;;;;;16.30;54.20;96964.67;1672032;85;21063;-82
2021/09/09 04:39:23;;;;;;;7.42;4.53;;;;;;;16.32;54.62;96961.33;1676281;85;21056;-83
2021/09/09 04:41:49;;;;;;;5.40;4.28;;;;;;;16.33;54.78;96959.81;1680349;84;21038;-82
2021/09/09 04:44:15;;;;;;;5.80;3.83;;;;;;;16.30;54.74;96964.67;1685006;84;21070;-83
2021/09/09 04:46:41;;;;;;;5.12;3.85;;;;;;;16.27;55.42;96960.64;1684692;83;21095;-83
2021/09/09 04:49:06;;;;;;;5.78;4.70;;;;;;;16.25;54.88;96960.52;1698931;83;21442;-82
2021/09/09 04:51:32;;;;;;;5.30;4.17;;;;;;;16.21;54.89;96957.00;1702937;83;21462;-82
2021/09/09 04:53:58;;;;;;;5.58;4.28;;;;;;;16.21;54.95;96953.06;1686520;84;21185;-82
2021/09/09 04:56:23;;;;;;;5.08;3.90;;;;;;;16.25;54.87;96964.45;1679058;84;21077;-83
2021/09/09 04:58:49;;;;;;;5.40;4.60;;;;;;;16.24;55.52;96957.59;1707533;83;21440;-83
2021/09/09 05:01:15;;;;;;;6.45;4.17;;;;;;;16.20;55.18;96961.94;1705037;83;21023;-82
2021/09/09 05:03:41;;;;;;;5.72;4.47;;;;;;;16.18;55.49;96957.91;1671715;84;21066;-82
2021/09/09 05:06:06;;;;;;;5.03;4.37;;;;;;;16.15;55.16;96957.02;1675516;84;21073;-82
2021/09/09 05:08:34;;;;;;;6.53;4.50;;;;;;;16.14;55.62;96962.77;1688245;84;21030;-82
2021/09/09 05:11:00;;;;;;;7.05;4.45;;;;;;;16.11;55.57;96968.41;1665877;85;21100;-82
2021/09/09 05:13:26;;;;;;;5.20;3.90;;;;;;;16.10;55.22;96962.03;1693577;84;21011;-83
2021/09/09 05:15:51;;;;;;;5.55;4.20;;;;;;;16.09;55.49;96961.73;1694501;84;21047;-82
2021/09/09 05:18:17;;;;;;;5.90;4.10;;;;;;;16.08;55.57;96954.38;1678951;84;21000;-83
2021/09/09 05:20:43;;;;;;;6.37;4.42;;;;;;;16.08;55.12;96955.69;1687131;84;21393;-83
2021/09/09 05:23:09;;;;;;;5.85;4.55;;;;;;;16.09;54.91;96949.43;1674876;84;21057;-83
2021/09/09 05:25:35;;;;;;;7.00;4.33;;;;;;;16.14;55.18;96942.30;1705208;84;21046;-82
2021/09/09 05:28:01;;;;;;;8.50;4.22;;;;;;;16.12;56.12;96942.50;1666381;85;21032;-82
2021/09/09 05:30:27;;;;;;;9.70;5.62;;;;;;;16.12;55.32;96944.31;1671643;84;21034;-82
2021/09/09 05:32:52;;;;;;;6.00;4.62;;;;;;;16.12;55.45;96947.73;1676997;84;21525;-82
2021/09/09 05:35:18;;;;;;;6.03;4.58;;;;;;;16.15;55.43;96943.39;1677200;84;21031;-83
2021/09/09 05:37:44;;;;;;;5.72;4.22;;;;;;;16.16;55.47;96951.56;1671439;84;21049;-82
2021/09/09 05:40:11;;;;;;;5.62;4.25;;;;;;;16.17;55.03;96941.38;1706701;83;21026;-83
2021/09/09 05:42:37;;;;;;;5.87;4.53;;;;;;;16.21;55.32;96939.95;1680202;84;20999;-82
2021/09/09 05:45:04;;;;;;;6.33;4.80;;;;;;;16.25;55.50;96940.34;1674815;84;21101;-82
2021/09/09 05:47:29;;;;;;;6.45;4.15;;;;;;;16.27;55.55;96944.07;1704040;83;21013;-83
2021/09/09 05:49:56;;;;;;;6.72;4.60;;;;;;;16.26;55.69;96952.44;1690428;84;21019;-82
2021/09/09 05:52:21;;;;;;;5.20;4.30;;;;;;;16.26;55.48;96945.89;1700097;84;20972;-82
2021/09/09 05:54:48;;;;;;;4.47;3.98;;;;;;;16.29;55.00;96943.39;1683639;84;21067;-82
2021/09/09 05:57:13;;;;;;;6.30;4.20;;;;;;;16.36;55.23;96934.99;1677521;84;21384;-82
2021/09/09 05:59:39;;;;;;;5.90;3.92;;;;;;;16.37;55.63;96934.79;1675295;84;21093;-82
2021/09/09 06:02:10;;;;;;;6.45;4.75;;;;;;;16.35;54.70;96933.39;1687238;84;21017;-82
2021/09/09 06:04:36;;;;;;;6.80;4.60;;;;;;;16.38;55.00;96931.16;1682418;84;21103;-83
2021/09/09 06:07:02;;;;;;;6.30;4.10;;;;;;;16.41;55.70;96939.92;1656283;84;21016;-82
2021/09/09 06:09:28;;;;;;;5.92;3.92;;;;;;;16.41;56.17;96931.25;1667284;84;21021;-82
2021/09/09 06:11:53;;;;;;;5.12;4.10;;;;;;;16.39;56.13;96930.14;1685621;84;21064;-82
2021/09/09 06:14:19;;;;;;;6.72;4.28;;;;;;;16.37;56.21;96937.41;1688635;84;21028;-82
2021/09/09 06:16:46;;;;;;;7.08;4.30;;;;;;;16.36;56.99;96941.05;1679469;84;21040;-83
2021/09/09 06:19:11;;;;;;;6.50;3.95;;;;;;;16.38;55.98;96938.22;1662602;84;21442;-82
2021/09/09 06:21:37;;;;;;;5.35;4.12;;;;;;;16.37;55.57;96929.55;1662204;84;20983;-82
2021/09/09 06:24:06;;;;;;;4.87;4.17;;;;;;;16.41;56.88;96933.87;1656876;85;21029;-82
2021/09/09 06:26:31;;;;;;;5.55;4.00;;;;;;;16.41;57.69;96932.55;1673269;85;21398;-82
2021/09/09 06:28:57;;;;;;;7.05;4.33;;;;;;;16.39;56.59;96933.27;1683322;84;21054;-83
2021/09/09 06:31:23;;;;;;;4.90;3.90;;;;;;;16.43;56.91;96939.71;1659969;85;21001;-82
2021/09/09 06:33:50;;;;;;;7.12;4.50;;;;;;;16.43;56.81;96925.28;1676200;84;21414;-82
2021/09/09 06:36:16;;;;;;;5.72;4.03;;;;;;;16.44;56.58;96930.86;1684566;84;21039;-82
2021/09/09 06:38:42;;;;;;;5.67;3.83;;;;;;;16.46;56.38;96924.90;1698199;83;21065;-83
2021/09/09 06:41:08;;;;;;;5.53;4.17;;;;;;;16.51;56.47;96928.51;1698744;84;21050;-82
2021/09/09 06:43:34;;;;;;;5.22;4.25;;;;;;;16.53;56.97;96932.23;1672442;85;21011;-82
2021/09/09 06:46:01;;;;;;;5.30;4.12;;;;;;;16.56;55.90;96929.70;1689926;84;20987;-82
2021/09/09 06:48:26;;;;;;;6.87;4.10;;;;;;;16.64;56.38;96923.74;1702613;84;20972;-83
2021/09/09 06:50:52;;;;;;;6.12;4.20;;;;;;;16.67;56.25;96923.35;1673833;84;20992;-83
2021/09/09 06:53:19;;;;;;;4.67;3.98;;;;;;;16.71;55.28;96919.80;1660182;84;21370;-82
2021/09/09 06:55:46;;;;;;;5.97;3.90;;;;;;;16.77;55.41;96917.17;1666675;85;21059;-83
2021/09/09 06:58:12;;;;;;;5.50;4.22;;;;;;;16.85;55.30;96925.81;1684734;84;21454;-83
2021/09/09 07:00:38;;;;;;;5.67;4.00;;;;;;;16.91;55.80;96923.66;1689517;83;21036;-83
2021/09/09 07:03:04;;;;;;;5.35;3.95;;;;;;;16.93;56.32;96918.53;1678984;84;21070;-82
2021/09/09 07:05:30;;;;;;;5.70;3.77;;;;;;;16.97;54.90;96934.66;1688950;83;21019;-83
2021/09/09 07:07:56;;;;;;;5.80;4.33;;;;;;;17.00;55.50;96927.17;1727285;83;20983;-82
2021/09/09 07:10:24;;;;;;;5.53;3.92;;;;;;;17.06;53.23;96939.95;1720811;82;21000;-83
2021/09/09 07:12:50;;;;;;;5.40;4.00;;;;;;;17.14;54.43;96933.17;1713348;83;21078;-83
2021/09/09 07:15:16;;;;;;;5.87;4.00;;;;;;;17.21;54.27;96929.99;1720197;83;21106;-82
2021/09/09 07:17:42;;;;;;;5.75;4.12;;;;;;;17.27;55.06;96931.80;1691396;84;21510;-82
2021/09/09 07:20:09;;;;;;;6.17;3.80;;;;;;;17.30;54.57;96933.99;1677546;84;21114;-83
2021/09/09 07:22:34;;;;;;;5.00;3.40;;;;;;;17.32;55.69;96931.96;1679597;84;21408;-82
2021/09/09 07:25:00;;;;;;;6.67;3.98;;;;;;;17.37;53.90;96936.58;1690081;83;21040;-83
2021/09/09 07:27:26;;;;;;;6.60;4.20;;;;;;;17.44;54.63;96932.61;1701981;84;21012;-83
2021/09/09 07:29:52;;;;;;;5.05;4.12;;;;;;;17.47;54.94;96934.81;1665992;84;21040;-82
2021/09/09 07:32:18;;;;;;;7.53;4.30;;;;;;;17.49;54.24;96936.72;1695775;83;21044;-83
2021/09/09 07:34:43;;;;;;;7.10;4.15;;;;;;;17.51;54.34;96932.05;1688919;84;21023;-83
2021/09/09 07:37:10;;;;;;;6.62;3.77;;;;;;;17.56;55.00;96938.78;1707955;84;21054;-83
2021/09/09 07:39:35;;;;;;;4.87;3.65;;;;;;;17.60;54.14;96934.73;1697263;84;21038;-83
2021/09/09 07:42:01;;;;;;;6.22;4.30;;;;;;;17.66;53.88;96944.39;1690837;84;21098;-83
2021/09/09 07:44:27;;;;;;;5.28;4.33;;;;;;;17.74;53.21;96943.38;1707705;84;21386;-82
2021/09/09 07:46:53;;;;;;;5.45;3.67;;;;;;;17.80;52.94;96949.88;1681684;84;21037;-82
2021/09/09 07:49:18;;;;;;;6.62;4.10;;;;;;;17.91;52.18;96947.89;1685517;84;21466;-82
2021/09/09 07:51:45;;;;;;;5.28;4.55;;;;;;;17.99;52.55;96946.30;1699848;84;21131;-83
2021/09/09 07:54:12;;;;;;;6.37;3.80;;;;;;;18.05;52.19;96950.39;1678989;84;21010;-82
2021/09/09 07:56:38;;;;;;;6.60;4.00;;;;;;;18.11;52.66;96946.92;1682142;84;21166;-83
2021/09/09 07:59:04;;;;;;;6.25;3.77;;;;;;;18.14;52.64;96945.97;1695193;84;21027;-83
2021/09/09 08:01:30;;;;;;;5.10;3.62;;;;;;;18.20;52.25;96945.10;1699296;84;21403;-83
2021/09/09 08:03:56;;;;;;;5.67;4.53;;;;;;;18.25;52.24;96940.02;1687170;84;21004;-82
2021/09/09 08:06:22;;;;;;;6.20;4.28;;;;;;;18.32;52.96;96940.45;1692974;84;21119;-83
2021/09/09 08:08:47;;;;;;;6.50;4.00;;;;;;;18.36;52.85;96942.94;1686762;84;21117;-83
2021/09/09 08:11:13;;;;;;;7.58;4.22;;;;;;;18.37;53.05;96937.45;1685647;84;21156;-83
2021/09/09 08:13:39;;;;;;;5.35;4.05;;;;;;;18.43;52.80;96941.07;1698604;84;21098;-83
2021/09/09 08:16:05;;;;;;;6.97;3.60;;;;;;;18.51;52.49;96938.14;1676023;84;21472;-83
2021/09/09 08:18:31;;;;;;;6.22;3.92;;;;;;;18.53;52.40;96937.41;1693772;84;21071;-83
2021/09/09 08:20:57;;;;;;;4.72;3.92;;;;;;;18.58;52.53;96938.38;1687569;84;21099;-83
2021/09/09 08:23:23;;;;;;;5.03;4.00;;;;;;;18.65;53.78;96940.16;1697989;84;21011;-83
2021/09/09 08:25:49;;;;;;;5.30;4.05;;;;;;;18.69;52.49;96937.37;1679893;84;21001;-83
2021/09/09 08:28:17;;;;;;;7.67;4.62;;;;;;;18.78;51.00;96936.87;1674124;84;21172;-83
2021/09/09 08:30:42;;;;;;;4.35;3.95;;;;;;;18.87;51.67;96937.37;1666652;84;21099;-83
2021/09/09 08:33:08;;;;;;;5.97;4.05;;;;;;;18.95;51.43;96940.23;1677848;84;21019;-82
2021/09/09 08:35:34;;;;;;;5.60;4.25;;;;;;;19.03;50.99;96940.72;1696207;84;20983;-83
2021/09/09 08:37:59;;;;;;;8.23;4.00;;;;;;;19.11;52.18;96935.68;1688325;84;21086;-83
2021/09/09 08:40:25;;;;;;;5.33;3.80;;;;;;;19.15;52.46;96938.16;1691159;84;21427;-83
2021/09/09 08:42:51;;;;;;;4.90;4.12;;;;;;;19.21;53.16;96945.19;1688958;84;21045;-83
2021/09/09 08:45:17;;;;;;;5.42;4.25;;;;;;;19.23;52.70;96940.49;1691713;84;21024;-83
2021/09/09 08:47:43;;;;;;;4.90;4.20;;;;;;;19.31;52.10;96947.27;1688124;84;21047;-83
2021/09/09 08:50:10;;;;;;;6.37;4.25;;;;;;;19.37;51.89;96947.72;1644159;84;21035;-83
2021/09/09 08:52:36;;;;;;;7.12;4.45;;;;;;;19.44;52.15;96937.87;1692424;84;21000;-83
2021/09/09 08:55:03;;;;;;;5.25;4.10;;;;;;;19.49;52.81;96943.27;1682442;84;21111;-83
2021/09/09 08:57:32;;;;;;;6.05;4.05;;;;;;;19.56;51.46;96945.86;1667124;84;21010;-83
2021/09/09 08:59:59;;;;;;;6.67;4.33;;;;;;;19.61;50.98;96942.03;1679743;85;21024;-83
2021/09/09 09:02:26;;;;;;;6.47;4.47;;;;;;;19.68;51.80;96942.20;1696070;84;21008;-83
2021/09/09 09:05:06;;;;;;;6.40;4.08;;;;;;;19.74;50.73;96939.20;1683230;84;21460;-83
2021/09/09 09:07:32;;;;;;;6.03;4.62;;;;;;;19.81;50.99;96940.41;1668633;85;21044;-83
2021/09/09 09:10:03;;;;;;;5.85;4.42;;;;;;;19.87;50.54;96939.52;1684547;84;21083;-83
2021/09/09 09:12:43;;;;;;;7.05;4.53;;;;;;;19.92;51.40;96937.00;1707678;84;21448;-83
2021/09/09 09:15:17;;;;;;;5.85;5.12;;;;;;;19.98;50.60;96934.77;1658060;84;20993;-83
2021/09/09 09:18:07;;;;;;;5.28;4.28;;;;;;;20.02;51.12;96936.73;1665977;85;21037;-83
2021/09/09 09:20:46;;;;;;;4.25;3.85;;;;;;;20.08;51.26;96935.02;1672760;85;21008;-83
2021/09/09 09:23:26;;;;;;;6.03;4.08;;;;;;;20.16;50.73;96934.66;1680006;84;21063;-83
2021/09/09 09:25:56;;;;;;;6.65;4.08;;;;;;;20.23;49.61;96925.34;1685659;84;22663;-83
2021/09/09 09:28:42;;;;;;;5.75;4.67;;;;;;;20.31;50.04;96932.89;1678845;84;21070;-83
2021/09/09 09:31:12;;;;;;;5.85;4.55;;;;;;;20.39;50.28;96925.97;1682328;84;21015;-83
2021/09/09 09:33:54;;;;;;;5.45;4.53;;;;;;;20.45;50.15;96922.94;1661560;85;21017;-83
2021/09/09 09:36:27;;;;;;;5.85;4.03;;;;;;;20.49;50.16;96923.55;1663622;84;21111;-83
2021/09/09 09:39:07;;;;;;;4.78;4.08;;;;;;;20.55;50.54;96921.85;1661056;85;21095;-83
2021/09/09 09:41:33;;;;;;;5.70;4.45;;;;;;;20.63;51.52;96926.24;1676888;85;21102;-83
2021/09/09 09:44:03;;;;;;;6.62;4.30;;;;;;;20.71;51.04;96912.41;1691866;84;21052;-83
2021/09/09 09:46:37;;;;;;;5.87;4.80;;;;;;;20.71;51.04;96912.41;1667423;85;21519;-83
2021/09/09 09:49:26;;;;;;;5.80;4.22;;;;;;;20.80;50.75;96921.05;1665896;85;21088;-83
2021/09/09 09:51:59;;;;;;;4.55;3.83;;;;;;;20.84;51.01;96915.61;1665487;84;22171;-83
2021/09/09 09:54:25;;;;;;;6.10;4.20;;;;;;;20.87;48.25;96916.97;1693682;83;21098;-83
2021/09/09 09:56:51;;;;;;;5.25;4.28;;;;;;;20.94;49.84;96916.31;1664240;85;21111;-83
2021/09/09 09:59:17;;;;;;;7.10;5.20;;;;;;;21.01;49.18;96918.83;1673138;84;21055;-83
2021/09/09 10:01:43;;;;;;;5.83;4.62;;;;;;;21.09;49.57;96919.77;1681432;84;21424;-83
2021/09/09 10:04:16;;;;;;;6.67;5.08;;;;;;;21.15;50.60;96913.53;1694080;84;21035;-82
2021/09/09 10:06:44;;;;;;;4.65;4.10;;;;;;;21.10;50.35;96908.16;1674540;84;21175;-83
2021/09/09 10:09:10;;;;;;;5.40;3.95;;;;;;;21.08;51.26;96907.59;1685695;84;21091;-83
2021/09/09 10:11:36;;;;;;;5.22;4.15;;;;;;;21.09;51.42;96903.91;1687687;84;21085;-83
2021/09/09 10:14:04;;;;;;;5.62;4.80;;;;;;;21.11;50.91;96905.28;1672810;84;21128;-83
2021/09/09 10:16:38;;;;;;;4.92;4.40;;;;;;;21.18;51.22;96905.16;1665250;84;21026;-83
2021/09/09 10:19:04;;;;;;;5.35;4.10;;;;;;;21.27;50.57;96909.84;1658701;85;21031;-83
2021/09/09 10:21:46;;;;;;;6.05;4.30;;;;;;;21.37;52.63;96903.16;1677799;84;21015;-83
2021/09/09 10:24:18;;;;;;;5.53;4.50;;;;;;;21.39;51.57;96903.71;1668760;84;21437;-83
2021/09/09 10:26:46;;;;;;;5.00;4.50;;;;;;;21.44;49.75;96898.50;1685951;84;21049;-83
2021/09/09 10:29:53;;;;;;;5.17;4.33;;;;;;;21.43;49.09;96894.26;1678228;84;21044;-83
2021/09/09 10:32:36;;;;;;;5.62;4.10;;;;;;;21.48;49.84;96892.52;1664122;85;21538;-83
2021/09/09 10:35:30;;;;;;;5.08;4.08;;;;;;;21.53;49.99;96887.31;1671867;84;21052;-83
2021/09/09 10:38:16;;;;;;;5.97;4.17;;;;;;;21.57;49.71;96888.44;1696445;84;21090;-83
2021/09/09 10:40:44;;;;;;;6.45;4.60;;;;;;;21.67;50.46;96885.69;1681643;84;21047;-83
2021/09/09 10:43:17;;;;;;;6.28;4.05;;;;;;;21.73;48.85;96887.37;1688198;84;21106;-83
2021/09/09 10:45:45;;;;;;;6.00;4.33;;;;;;;21.75;49.34;96886.08;1677166;84;21053;-83
2021/09/09 10:48:22;;;;;;;6.10;4.55;;;;;;;21.82;48.84;96881.97;1679771;84;21077;-83
2021/09/09 10:51:08;;;;;;;4.45;4.00;;;;;;;21.89;49.43;96875.98;1680055;84;21100;-83
2021/09/09 10:53:42;;;;;;;4.65;4.12;;;;;;;21.92;47.40;96874.17;1679937;84;21215;-83
2021/09/09 10:56:15;;;;;;;5.60;3.80;;;;;;;22.02;48.59;96863.75;1681145;84;21342;-83
2021/09/09 10:58:40;;;;;;;6.28;5.17;;;;;;;22.10;47.94;96863.36;1701321;83;21087;-83
2021/09/09 11:01:08;;;;;;;4.90;4.40;;;;;;;22.22;47.20;96862.47;1683379;83;21079;-83
2021/09/09 11:03:44;;;;;;;4.53;3.80;;;;;;;22.30;47.37;96856.77;1687566;83;21011;-83
2021/09/09 11:06:18;;;;;;;4.17;3.60;;;;;;;22.39;46.68;96857.94;1691362;83;21383;-83
2021/09/09 11:08:52;;;;;;;5.85;4.00;;;;;;;22.48;46.98;96860.98;1690866;84;21051;-83
2021/09/09 11:11:29;;;;;;;6.33;4.45;;;;;;;22.55;47.13;96858.94;1684570;84;21051;-83
2021/09/09 11:14:04;;;;;;;6.70;3.85;;;;;;;22.62;47.06;96852.95;1659578;85;21096;-83
2021/09/09 11:16:35;;;;;;;5.42;4.17;;;;;;;22.65;48.25;96854.58;1702019;83;20988;-83
2021/09/09 11:19:01;;;;;;;4.70;3.70;;;;;;;22.67;47.03;96856.45;1693985;84;21075;-83
2021/09/09 11:21:31;;;;;;;6.22;4.15;;;;;;;22.72;46.14;96853.05;1656284;84;21023;-83
2021/09/09 11:24:06;;;;;;;5.22;4.12;;;;;;;22.78;45.78;96852.08;1700346;84;21386;-83
2021/09/09 11:26:34;;;;;;;7.05;4.45;;;;;;;22.86;47.09;96850.33;1667720;85;21092;-83
2021/09/09 11:29:00;;;;;;;4.10;3.47;;;;;;;22.87;47.20;96852.45;1675639;84;21034;-83
2021/09/09 11:31:28;;;;;;;5.00;3.45;;;;;;;22.92;48.29;96851.98;1671833;84;21121;-83
2021/09/09 11:34:05;;;;;;;4.17;3.65;;;;;;;22.95;46.42;96853.36;1700253;83;21038;-83
2021/09/09 11:36:37;;;;;;;4.47;3.67;;;;;;;23.00;44.21;96848.91;1692564;83;21073;-83